MDT,Max TemperatureF,Mean TemperatureF,Min TemperatureF,Max Dew PointF,MeanDew PointF,Min DewpointF,Max Humidity, Mean Humidity, Min Humidity, Max Sea Level PressureIn, Mean Sea Level PressureIn, Min Sea Level PressureIn, Max VisibilityMiles, Mean VisibilityMiles, Min VisibilityMiles, Max Wind SpeedMPH, Mean Wind SpeedMPH, Max Gust SpeedMPH,PrecipitationIn, CloudCover, Events, WindDirDegrees
2013-3-1,40,30,19,20,15,9,78,57,35,30.33,30.27,30.20,10,10,10,17,8,18,0.00,1,,330
2013-3-2,52,36,21,26,20,15,74,49,29,30.33,30.26,30.14,10,10,10,13,8,18,0.00,0,,246
2013-3-3,59,44,29,23,18,10,67,38,15,30.10,29.86,29.74,10,10,10,25,8,37,0.00,0,,271
2013-3-4,44,26,9,26,18,4,94,68,37,30.17,29.88,29.72,10,9,0,25,11,33,0.00,4,Snow,360
2013-3-5,33,19,5,22,15,3,96,79,57,30.25,30.19,30.12,10,10,1,12,5,,0.00,1,Snow,228
2013-3-6,57,39,21,25,18,6,89,45,14,30.11,30.00,29.91,10,10,10,14,6,18,0.00,0,,238
2013-3-7,60,44,29,25,14,7,74,34,13,30.02,29.97,29.91,10,10,10,18,7,30,0.00,0,,253
2013-3-8,56,42,29,31,25,16,92,56,26,29.99,29.84,29.65,10,10,5,16,8,25,0.00,1,,44
2013-3-9,33,28,22,31,24,12,93,84,66,30.00,29.72,29.58,10,4,0,37,20,53,0.00,5,Snow,352
2013-3-10,35,27,19,16,14,12,83,60,43,30.07,30.03,29.99,10,10,5,32,16,46,0.00,3,Snow,335
2013-3-11,54,40,27,29,17,10,99,50,20,30.09,29.99,29.93,10,9,0,20,10,29,0.00,2,Fog-Snow,334
2013-3-12,30,26,23,27,25,23,99,93,81,30.26,30.21,30.10,10,8,2,12,7,16,0.00,6,Snow,290
2013-3-13,61,43,26,26,20,15,94,44,19,30.32,30.27,30.21,10,10,10,15,8,21,0.00,1,,254
2013-3-14,65,50,34,25,18,13,64,33,14,30.39,30.31,30.26,10,10,10,15,7,22,0.00,0,,257
2013-3-15,70,52,34,25,17,12,67,26,12,30.24,30.08,29.97,10,10,10,21,10,25,0.00,0,,298
2013-3-16,50,41,32,34,26,18,90,57,29,30.08,29.99,29.89,10,10,10,21,10,29,0.00,3,Rain,205
2013-3-17,58,41,25,30,21,8,92,56,14,29.91,29.73,29.58,10,10,10,39,11,50,0.00,1,Thunderstorm,261
2013-3-18,48,33,18,17,8,-2,70,38,14,29.94,29.90,29.83,10,10,10,22,9,33,0.00,2,,292
2013-3-19,48,36,24,14,8,-2,55,33,17,30.28,30.08,29.93,10,10,10,21,10,26,0.00,0,,347
2013-3-20,41,28,16,19,13,10,80,59,32,30.30,30.09,29.78,10,10,10,14,6,16,0.00,0,,254
2013-3-21,54,40,27,33,24,18,99,56,27,29.82,29.69,29.55,10,10,3,28,12,33,0.00,3,Rain,338
2013-3-22,45,34,23,28,23,16,100,75,33,29.85,29.76,29.61,10,7,0,32,15,48,0.00,6,Fog-Snow-Thunderstorm,172
2013-3-23,23,16,9,20,11,4,90,80,69,30.08,29.89,29.76,10,4,0,32,19,44,0.00,7,Snow,350
2013-3-24,28,15,2,11,4,-4,83,64,33,30.10,30.01,29.97,10,10,7,17,8,24,0.00,3,Snow,334
2013-3-25,32,19,6,12,9,3,92,68,36,30.20,30.15,30.10,10,9,2,14,6,18,0.00,2,Snow,211
2013-3-26,49,30,12,23,13,7,82,51,22,30.18,30.03,29.94,10,10,10,14,7,24,0.00,1,,202
2013-3-27,54,40,25,30,23,19,83,53,26,30.18,30.07,29.97,10,10,10,21,9,23,0.00,0,,178
2013-3-28,61,44,27,29,24,17,85,52,20,30.20,30.14,30.11,10,10,10,15,5,22,0.00,3,,213
2013-3-29,63,46,30,33,25,16,83,49,16,30.19,30.17,30.11,10,10,10,15,5,30,0.00,2,Rain,289
2013-3-30,64,50,35,34,24,14,89,46,15,30.22,30.15,30.06,10,10,10,22,10,34,0.00,3,,329
2013-3-31,65,47,29,33,23,13,93,52,13,30.22,30.11,30.00,10,10,10,16,10,23,0.00,1,,229